Time;durP1;ratioP1;P1;durP2;ratioP2;P2;SDS_P1;SDS_P2;PMS_P1;PMS_P2;Temp;Humidity;BMP_temperature;BMP_pressure;BME280_temperature;BME280_humidity;BME280_pressure;Samples;Min_cycle;Max_cycle;Signal;HPM_P1;HPM_P2
2022/08/16 00:01:50;;;;;;;17.48;11.63;;;22.00;99.90;;;;;;4996317;28;20446;-89
2022/08/16 00:04:26;;;;;;;16.13;11.52;;;21.20;99.90;;;;;;5011503;28;20482;-88
2022/08/16 00:06:58;;;;;;;16.45;11.30;;;21.50;99.90;;;;;;4984051;28;20125;-89
2022/08/16 00:09:30;;;;;;;13.98;10.93;;;21.30;99.90;;;;;;4994912;28;20529;-90
2022/08/16 00:11:59;;;;;;;15.52;11.65;;;21.30;99.90;;;;;;4979007;28;20141;-90
2022/08/16 00:14:33;;;;;;;17.08;12.80;;;21.90;99.90;;;;;;4978063;28;20065;-89
2022/08/16 00:17:05;;;;;;;19.08;13.90;;;21.30;99.90;;;;;;4977371;28;20081;-90
2022/08/16 00:19:36;;;;;;;19.65;13.98;;;21.80;99.90;;;;;;4995825;28;20049;-89
2022/08/16 00:22:05;;;;;;;16.80;12.95;;;21.20;99.90;;;;;;4978164;28;20043;-89
2022/08/16 00:24:37;;;;;;;18.75;12.65;;;21.30;99.90;;;;;;4976679;28;20415;-89
2022/08/16 00:27:06;;;;;;;18.45;13.20;;;21.10;99.90;;;;;;4978273;28;20406;-89
2022/08/16 00:29:37;;;;;;;18.65;12.77;;;21.50;99.90;;;;;;4977858;28;20081;-89
2022/08/16 00:32:09;;;;;;;17.77;13.25;;;21.20;99.90;;;;;;4983336;28;20061;-90
2022/08/16 00:34:38;;;;;;;19.85;13.52;;;21.00;99.90;;;;;;4991266;28;20066;-89
2022/08/16 00:37:10;;;;;;;19.13;12.85;;;21.20;99.90;;;;;;4982145;28;20051;-89
2022/08/16 00:39:35;;;;;;;17.63;12.20;;;21.50;99.90;;;;;;4995097;28;20097;-89
2022/08/16 00:42:07;;;;;;;18.63;14.05;;;21.60;99.90;;;;;;4995876;28;20118;-89
2022/08/16 00:44:38;;;;;;;19.27;14.10;;;21.30;99.90;;;;;;4980596;28;20049;-89
2022/08/16 00:47:27;;;;;;;19.13;13.45;;;21.60;99.90;;;;;;4976655;28;20082;-89
2022/08/16 00:49:56;;;;;;;20.20;14.10;;;21.40;99.90;;;;;;4977211;28;20498;-90
2022/08/16 00:52:31;;;;;;;20.17;13.88;;;21.60;99.90;;;;;;4976436;28;20465;-89
2022/08/16 00:55:06;;;;;;;18.92;13.88;;;21.10;99.90;;;;;;4979126;28;20490;-89
2022/08/16 00:57:36;;;;;;;16.90;12.77;;;21.10;99.90;;;;;;4977182;28;20478;-89
2022/08/16 01:00:07;;;;;;;17.05;13.05;;;21.50;99.90;;;;;;4976140;23;20399;-88
2022/08/16 01:02:46;;;;;;;16.92;12.50;;;21.00;99.90;;;;;;4957572;28;20442;-89
2022/08/16 01:05:18;;;;;;;19.27;13.52;;;21.40;99.90;;;;;;4957122;28;20057;-89
2022/08/16 01:07:47;;;;;;;18.42;13.10;;;20.90;99.90;;;;;;4957694;28;20097;-89
2022/08/16 01:10:13;;;;;;;16.48;13.45;;;21.50;99.90;;;;;;4957930;28;20483;-89
2022/08/16 01:12:42;;;;;;;18.90;13.18;;;21.50;99.90;;;;;;4956794;28;20053;-89
2022/08/16 01:15:09;;;;;;;18.45;13.32;;;20.80;99.90;;;;;;4975838;28;20039;-89
2022/08/16 01:17:40;;;;;;;19.27;15.57;;;20.70;99.90;;;;;;5002314;23;20526;-89
2022/08/16 01:20:15;;;;;;;22.20;14.93;;;21.30;99.90;;;;;;4993065;28;20113;-89
2022/08/16 01:23:07;;;;;;;20.17;15.18;;;20.90;99.90;;;;;;4994567;28;20038;-89
2022/08/16 01:25:37;;;;;;;22.23;15.40;;;21.30;99.90;;;;;;4976372;28;20130;-89
2022/08/16 01:28:09;;;;;;;21.30;17.45;;;20.40;99.90;;;;;;4975950;28;20097;-89
2022/08/16 01:30:40;;;;;;;22.15;17.98;;;20.30;99.90;;;;;;4993853;28;20042;-88
2022/08/16 01:33:07;;;;;;;24.25;18.02;;;20.50;99.90;;;;;;4976777;28;20104;-89
2022/08/16 01:36:07;;;;;;;22.55;18.20;;;21.00;99.90;;;;;;4993553;28;20394;-90
2022/08/16 01:38:41;;;;;;;27.02;19.05;;;20.50;99.90;;;;;;4976374;28;20138;-90
2022/08/16 01:41:31;;;;;;;24.02;18.30;;;20.50;99.90;;;;;;5014438;28;20090;-90
2022/08/16 01:44:06;;;;;;;25.05;19.83;;;21.20;99.90;;;;;;4995804;28;20053;-89
2022/08/16 01:46:41;;;;;;;25.27;19.85;;;20.50;99.90;;;;;;4994076;28;20074;-89
2022/08/16 01:49:14;;;;;;;24.67;18.65;;;20.50;99.90;;;;;;4975640;28;20049;-88
2022/08/16 01:51:53;;;;;;;22.65;19.27;;;20.50;99.90;;;;;;4997554;23;20146;-89
2022/08/16 01:54:26;;;;;;;23.25;18.92;;;20.50;99.90;;;;;;4955846;28;20121;-88
2022/08/16 01:57:00;;;;;;;27.52;20.15;;;20.50;99.90;;;;;;4974607;28;20118;-90
2022/08/16 01:59:29;;;;;;;;;;;20.80;99.90;;;;;;4956733;28;20038;-90
2022/08/16 02:01:55;;;;;;;24.83;20.42;;;20.60;99.90;;;;;;4972718;28;19929;-90
2022/08/16 02:04:25;;;;;;;25.73;20.75;;;20.90;99.90;;;;;;4955996;28;20053;-89
2022/08/16 02:06:52;;;;;;;24.75;19.98;;;20.50;99.90;;;;;;4956460;28;20499;-89
2022/08/16 02:09:26;;;;;;;29.17;20.50;;;21.00;99.90;;;;;;4955605;28;20066;-89
2022/08/16 02:11:56;;;;;;;25.55;19.73;;;21.00;99.90;;;;;;4973913;28;20113;-90
2022/08/16 02:14:25;;;;;;;24.38;18.90;;;20.70;99.90;;;;;;5015139;23;20050;-89
2022/08/16 02:17:58;;;;;;;26.05;19.80;;;20.40;99.90;;;;;;4992692;28;20046;-89
2022/08/16 02:20:30;;;;;;;26.58;20.02;;;20.20;99.90;;;;;;4975359;28;20065;-90
2022/08/16 02:23:00;;;;;;;26.33;21.38;;;20.20;99.90;;;;;;4991824;28;20045;-89
2022/08/16 02:27:53;;;;;;;28.33;20.15;;;20.10;99.90;;;;;;4956944;28;20059;-90
2022/08/16 02:30:23;;;;;;;28.88;21.42;;;20.10;99.90;;;;;;5028187;23;20091;-89
2022/08/16 02:33:55;;;;;;;26.92;20.98;;;20.00;99.90;;;;;;5054073;23;20058;-89
2022/08/16 02:37:12;;;;;;;26.50;20.85;;;20.00;99.90;;;;;;4956401;28;20066;-89
2022/08/16 02:39:38;;;;;;;29.60;20.45;;;19.90;99.90;;;;;;4955952;28;20403;-89
2022/08/16 02:42:04;;;;;;;28.15;19.52;;;19.80;99.90;;;;;;4973732;28;20046;-90
2022/08/16 02:44:30;;;;;;;25.83;20.08;;;19.80;99.90;;;;;;4959208;28;20131;-89
2022/08/16 02:46:58;;;;;;;27.25;19.75;;;19.80;99.90;;;;;;4973335;28;20063;-90
2022/08/16 02:49:27;;;;;;;24.55;19.02;;;20.50;99.90;;;;;;4955780;28;20057;-90
2022/08/16 02:51:56;;;;;;;26.60;19.27;;;20.50;99.90;;;;;;4955675;28;20062;-89
2022/08/16 02:54:28;;;;;;;25.70;19.77;;;19.80;99.90;;;;;;4955964;28;20058;-89
2022/08/16 02:56:56;;;;;;;25.77;19.42;;;20.30;99.90;;;;;;4956225;28;20043;-89
2022/08/16 02:59:34;;;;;;;22.98;18.02;;;20.30;99.90;;;;;;4972069;28;20131;-89
2022/08/16 03:02:03;;;;;;;27.08;18.50;;;20.50;99.90;;;;;;4973315;28;20403;-89
2022/08/16 03:04:38;;;;;;;27.40;19.50;;;19.80;99.90;;;;;;4973297;28;20050;-90
2022/08/16 03:07:07;;;;;;;27.40;18.60;;;20.40;99.90;;;;;;4956222;28;20050;-89
2022/08/16 03:09:34;;;;;;;25.98;18.65;;;19.80;99.90;;;;;;4973376;28;20070;-89
2022/08/16 03:12:01;;;;;;;23.77;17.63;;;19.90;99.90;;;;;;4958756;28;20098;-90
2022/08/16 03:14:33;;;;;;;23.23;17.83;;;20.30;99.90;;;;;;4959765;28;20073;-89
2022/08/16 03:17:05;;;;;;;26.02;17.67;;;20.30;99.90;;;;;;4977397;28;20035;-89
2022/08/16 03:19:50;;;;;;;23.00;17.85;;;19.90;99.90;;;;;;4982341;28;20051;-90
2022/08/16 03:22:25;;;;;;;22.98;17.75;;;20.70;99.90;;;;;;4976890;28;20410;-90
2022/08/16 03:25:04;;;;;;;23.10;17.25;;;20.60;99.90;;;;;;4960021;28;20518;-90
2022/08/16 03:27:43;;;;;;;23.00;17.52;;;19.90;99.90;;;;;;4959280;28;20043;-89
2022/08/16 03:30:16;;;;;;;22.50;16.85;;;20.80;99.90;;;;;;4976845;28;20130;-90
2022/08/16 03:33:02;;;;;;;23.70;16.45;;;20.10;99.90;;;;;;4959213;28;20055;-89
2022/08/16 03:35:34;;;;;;;23.35;17.42;;;20.10;99.90;;;;;;4986997;28;20062;-90
2022/08/16 03:38:14;;;;;;;22.77;17.02;;;20.20;99.90;;;;;;4983583;28;20125;-91
2022/08/16 03:40:59;;;;;;;23.48;16.10;;;19.70;99.90;;;;;;4959224;28;20051;-89
2022/08/16 03:43:40;;;;;;;24.88;17.33;;;20.40;99.90;;;;;;4977011;28;20043;-90
2022/08/16 03:46:14;;;;;;;23.67;16.35;;;20.00;99.90;;;;;;4959060;28;20561;-89
2022/08/16 03:48:52;;;;;;;24.45;17.10;;;20.20;99.90;;;;;;4958441;28;20050;-90
2022/08/16 03:51:30;;;;;;;25.88;18.30;;;19.40;99.90;;;;;;4958946;28;20499;-90
2022/08/16 03:54:08;;;;;;;23.45;17.15;;;19.40;99.90;;;;;;4958910;28;20065;-89
2022/08/16 03:56:34;;;;;;;25.35;17.08;;;19.70;99.90;;;;;;4976454;28;20054;-89
2022/08/16 03:59:08;;;;;;;24.88;17.65;;;19.70;99.90;;;;;;4958854;28;20411;-90
2022/08/16 04:01:34;;;;;;;24.25;17.40;;;19.60;99.90;;;;;;4957784;28;20495;-89
2022/08/16 04:04:00;;;;;;;26.23;18.30;;;19.20;99.90;;;;;;4976294;28;20058;-90
2022/08/16 04:06:25;;;;;;;24.35;18.13;;;19.20;99.90;;;;;;4959331;28;20042;-90
2022/08/16 04:08:51;;;;;;;25.50;17.00;;;19.70;99.90;;;;;;4957790;28;20051;-89
2022/08/16 04:11:25;;;;;;;25.23;18.23;;;19.10;99.90;;;;;;4975415;28;20403;-89
2022/08/16 04:13:51;;;;;;;26.17;18.67;;;19.10;99.90;;;;;;4958847;28;20086;-89
2022/08/16 04:16:22;;;;;;;28.60;18.77;;;19.10;99.90;;;;;;4957521;28;20435;-89
2022/08/16 04:18:48;;;;;;;26.02;17.80;;;19.70;99.90;;;;;;4977454;28;20042;-90
2022/08/16 04:21:19;;;;;;;25.80;18.52;;;19.20;99.90;;;;;;4977600;23;20063;-89
2022/08/16 04:24:14;;;;;;;26.50;18.38;;;19.00;99.90;;;;;;4935765;29;20499;-89
2022/08/16 04:26:40;;;;;;;26.83;18.50;;;18.90;99.90;;;;;;4936880;29;20507;-89
2022/08/16 04:29:14;;;;;;;24.60;17.83;;;19.40;99.90;;;;;;4936375;29;20055;-89
2022/08/16 04:31:53;;;;;;;26.13;17.67;;;18.70;99.90;;;;;;4920913;29;20040;-89
2022/08/16 04:34:38;;;;;;;26.35;18.85;;;19.60;99.90;;;;;;4923639;29;20134;-89
2022/08/16 04:37:13;;;;;;;26.88;16.45;;;19.20;99.90;;;;;;4920452;29;20532;-90
2022/08/16 04:39:54;;;;;;;27.20;18.75;;;18.90;99.90;;;;;;4937673;29;20039;-89
2022/08/16 04:42:29;;;;;;;25.50;18.27;;;18.80;99.90;;;;;;4920257;29;20036;-89
2022/08/16 04:45:05;;;;;;;26.85;18.20;;;19.40;99.90;;;;;;5034580;23;20060;-89
2022/08/16 04:47:34;;;;;;;26.77;17.15;;;18.70;99.90;;;;;;4978032;28;20402;-90
2022/08/16 04:50:21;;;;;;;25.98;17.70;;;19.30;99.90;;;;;;4977810;28;20594;-90
2022/08/16 04:52:53;;;;;;;27.65;18.60;;;18.50;99.90;;;;;;5009391;28;20025;-89
2022/08/16 04:55:32;;;;;;;26.23;17.65;;;19.00;99.90;;;;;;4987217;28;20490;-89
2022/08/16 04:58:12;;;;;;;25.90;18.25;;;18.70;99.90;;;;;;4997104;28;20081;-88
2022/08/16 05:00:41;;;;;;;28.25;18.25;;;18.70;99.90;;;;;;4979540;28;20102;-88
2022/08/16 05:03:22;;;;;;;26.77;18.35;;;18.70;99.90;;;;;;4996789;28;20482;-88
2022/08/16 05:05:49;;;;;;;27.13;19.08;;;17.20;99.90;;;;;;4996527;28;20046;-88
2022/08/16 05:08:23;;;;;;;28.98;18.65;;;19.40;99.90;;;;;;4977430;28;20050;-88
2022/08/16 05:10:49;;;;;;;28.30;19.60;;;18.80;99.90;;;;;;4995527;28;20390;-88
2022/08/16 05:13:16;;;;;;;28.17;19.10;;;18.90;99.90;;;;;;4976412;28;20041;-88
2022/08/16 05:16:00;;;;;;;32.08;20.35;;;19.20;99.90;;;;;;4977387;28;20438;-88
2022/08/16 05:18:32;;;;;;;29.60;20.13;;;18.80;99.90;;;;;;4993548;28;20046;-88
2022/08/16 05:21:08;;;;;;;29.52;19.15;;;19.10;99.90;;;;;;4976612;28;20046;-88
2022/08/16 05:23:36;;;;;;;29.52;19.67;;;18.90;99.90;;;;;;4976766;28;20266;-88
2022/08/16 05:26:21;;;;;;;28.85;19.85;;;19.30;99.90;;;;;;4976308;28;20052;-87
2022/08/16 05:29:03;;;;;;;27.85;19.10;;;19.40;99.90;;;;;;4977203;28;20178;-88
2022/08/16 05:31:29;;;;;;;27.55;19.05;;;19.00;99.90;;;;;;4994282;28;20038;-88
2022/08/16 05:34:10;;;;;;;28.20;18.50;;;19.30;99.90;;;;;;4992818;28;20042;-89
2022/08/16 05:36:36;;;;;;;30.08;18.83;;;19.50;99.90;;;;;;4994412;28;20046;-89
2022/08/16 05:39:08;;;;;;;25.70;17.77;;;19.70;99.90;;;;;;4976134;28;20051;-90
2022/08/16 05:41:35;;;;;;;27.13;17.70;;;19.20;99.90;;;;;;4975682;28;20077;-89
2022/08/16 05:44:01;;;;;;;25.58;17.42;;;19.20;99.90;;;;;;4977275;28;20580;-88
2022/08/16 05:46:27;;;;;;;24.45;17.10;;;19.30;99.90;;;;;;4975591;28;20089;-88
2022/08/16 05:48:52;;;;;;;30.58;19.00;;;19.60;99.90;;;;;;4976363;28;20046;-87
2022/08/16 05:51:18;;;;;;;25.67;16.98;;;19.30;99.90;;;;;;4975871;28;20129;-82
2022/08/16 05:53:44;;;;;;;26.70;17.52;;;19.40;99.90;;;;;;4975696;28;20398;-82
2022/08/16 05:56:10;;;;;;;24.02;17.27;;;19.50;99.90;;;;;;4976155;28;20046;-80
2022/08/16 05:58:37;;;;;;;27.05;17.83;;;19.70;99.90;;;;;;4993248;28;20065;-82
2022/08/16 06:01:03;;;;;;;25.13;18.05;;;20.00;99.90;;;;;;4992973;28;20117;-79
2022/08/16 06:03:29;;;;;;;26.55;17.70;;;19.70;99.90;;;;;;4975703;28;20038;-81
2022/08/16 06:05:55;;;;;;;25.20;16.65;;;19.70;99.90;;;;;;4976149;28;20454;-84
2022/08/16 06:08:20;;;;;;;24.77;16.77;;;19.90;99.90;;;;;;4991859;28;20053;-82
2022/08/16 06:10:46;;;;;;;23.77;16.30;;;19.90;99.90;;;;;;4993301;28;20037;-83
2022/08/16 06:13:12;;;;;;;24.23;17.10;;;20.10;99.90;;;;;;4975949;28;20096;-83
2022/08/16 06:15:38;;;;;;;26.90;16.70;;;20.00;99.90;;;;;;4974911;28;20034;-83
2022/08/16 06:18:03;;;;;;;22.70;16.50;;;20.10;99.90;;;;;;4975666;28;20046;-79
2022/08/16 06:20:29;;;;;;;26.83;16.98;;;20.30;99.90;;;;;;4969371;28;20047;-81
2022/08/16 06:22:56;;;;;;;24.27;15.93;;;20.40;99.90;;;;;;4965665;28;20035;-82
2022/08/16 06:25:24;;;;;;;26.17;16.85;;;20.50;99.90;;;;;;4961147;28;20070;-82
2022/08/16 06:27:50;;;;;;;25.17;15.68;;;20.60;99.90;;;;;;4973944;28;20054;-83
2022/08/16 06:30:16;;;;;;;21.63;14.98;;;20.80;99.90;;;;;;4955295;28;20088;-82
2022/08/16 06:32:43;;;;;;;23.20;13.93;;;21.00;99.90;;;;;;4973677;28;20118;-83
2022/08/16 06:35:10;;;;;;;23.17;14.15;;;21.20;99.90;;;;;;4973926;28;20046;-83
2022/08/16 06:37:36;;;;;;;22.75;14.15;;;21.40;99.90;;;;;;4955677;28;20074;-83
2022/08/16 06:40:03;;;;;;;19.08;13.10;;;21.70;99.90;;;;;;4981021;23;20046;-82
2022/08/16 06:42:29;;;;;;;19.33;12.55;;;21.90;99.90;;;;;;4992363;28;20049;-83
2022/08/16 06:44:54;;;;;;;20.00;12.02;;;22.20;99.90;;;;;;4973875;28;20148;-80
2022/08/16 06:47:20;;;;;;;18.15;12.52;;;22.20;99.90;;;;;;4975339;28;20410;-80
2022/08/16 06:49:46;;;;;;;18.50;12.38;;;22.40;99.90;;;;;;4992385;28;20126;-83
2022/08/16 06:52:12;;;;;;;19.20;12.63;;;22.50;99.90;;;;;;4992981;28;20081;-83
2022/08/16 06:54:38;;;;;;;18.75;12.70;;;22.50;99.90;;;;;;4992447;28;20047;-83
2022/08/16 06:57:04;;;;;;;18.83;13.00;;;22.50;99.90;;;;;;4992465;28;20088;-83
2022/08/16 06:59:31;;;;;;;19.67;12.73;;;22.40;99.90;;;;;;4974794;28;20047;-83
2022/08/16 07:01:57;;;;;;;19.98;13.48;;;22.60;99.90;;;;;;4992761;28;20180;-83
2022/08/16 07:04:22;;;;;;;19.70;13.40;;;22.40;99.90;;;;;;4974223;28;20062;-83
2022/08/16 07:06:48;;;;;;;18.90;13.18;;;22.30;99.90;;;;;;4975477;28;20047;-83
2022/08/16 07:09:14;;;;;;;17.88;12.43;;;22.40;99.90;;;;;;4975031;28;20081;-83
2022/08/16 07:11:40;;;;;;;18.98;12.85;;;22.30;99.90;;;;;;4974349;28;20038;-83
2022/08/16 07:14:06;;;;;;;19.30;13.15;;;22.60;99.90;;;;;;4975183;28;20042;-83
2022/08/16 07:16:31;;;;;;;19.38;12.35;;;22.80;99.90;;;;;;4974679;28;20475;-82
2022/08/16 07:18:58;;;;;;;17.95;13.23;;;23.10;99.90;;;;;;4991796;28;20133;-82
2022/08/16 07:21:24;;;;;;;19.38;13.40;;;23.00;99.90;;;;;;4986260;28;20446;-83
2022/08/16 07:23:50;;;;;;;18.92;13.30;;;23.20;99.90;;;;;;4981360;28;20054;-83
2022/08/16 07:26:25;;;;;;;19.75;13.38;;;23.20;99.90;;;;;;4964473;28;20035;-82
2022/08/16 07:28:51;;;;;;;17.63;12.80;;;23.20;99.90;;;;;;4981347;28;20070;-83
2022/08/16 07:31:18;;;;;;;18.40;13.07;;;23.60;99.90;;;;;;4966157;28;20038;-83
2022/08/16 07:33:46;;;;;;;17.73;12.60;;;23.50;99.90;;;;;;4974260;28;20054;-82
2022/08/16 07:36:13;;;;;;;18.10;13.25;;;23.70;99.90;;;;;;4992584;28;20173;-83
2022/08/16 07:38:39;;;;;;;17.05;12.32;;;23.60;99.90;;;;;;4975021;28;20093;-83
2022/08/16 07:41:05;;;;;;;20.90;13.18;;;23.50;99.90;;;;;;4974052;28;20058;-83
2022/08/16 07:43:31;;;;;;;19.15;13.38;;;23.50;99.90;;;;;;4975025;28;20050;-82
2022/08/16 07:45:58;;;;;;;20.95;14.23;;;23.50;99.90;;;;;;4974901;28;20514;-83
2022/08/16 07:48:24;;;;;;;18.42;13.45;;;23.60;99.90;;;;;;4991552;28;20046;-82
2022/08/16 07:50:50;;;;;;;19.60;13.95;;;23.70;99.90;;;;;;4975285;28;20100;-83
2022/08/16 07:53:16;;;;;;;20.70;13.93;;;23.80;99.90;;;;;;4974118;28;20438;-83
2022/08/16 07:55:42;;;;;;;20.35;14.65;;;23.80;99.90;;;;;;4992690;28;20046;-83
2022/08/16 07:58:07;;;;;;;22.20;14.35;;;23.80;99.90;;;;;;4995802;28;20413;-83
2022/08/16 08:00:34;;;;;;;21.17;14.88;;;23.90;99.90;;;;;;4994979;28;20137;-83
2022/08/16 08:03:00;;;;;;;22.85;14.20;;;24.00;99.90;;;;;;4995890;28;20544;-82
2022/08/16 08:05:27;;;;;;;20.70;14.32;;;24.10;99.90;;;;;;4977222;28;20046;-84
2022/08/16 08:07:53;;;;;;;23.52;15.27;;;24.20;99.90;;;;;;4978180;28;20053;-82
2022/08/16 08:10:21;;;;;;;20.02;14.27;;;24.70;99.90;;;;;;4995697;28;20081;-83
2022/08/16 08:12:49;;;;;;;18.23;14.15;;;24.30;99.90;;;;;;4977384;28;20050;-82
2022/08/16 08:15:17;;;;;;;21.15;15.68;;;24.40;99.90;;;;;;4977314;28;20496;-81
2022/08/16 08:17:44;;;;;;;19.95;15.50;;;24.50;99.90;;;;;;4975737;28;20042;-83
2022/08/16 08:20:14;;;;;;;19.25;15.00;;;24.50;99.90;;;;;;4965940;28;20165;-85
2022/08/16 08:22:41;;;;;;;21.55;14.63;;;24.50;99.90;;;;;;4968474;28;20042;-85
2022/08/16 08:25:07;;;;;;;18.60;13.70;;;24.70;99.90;;;;;;4957755;28;20426;-85
2022/08/16 08:27:33;;;;;;;19.23;13.70;;;24.70;99.90;;;;;;4958547;28;20038;-84
2022/08/16 08:29:58;;;;;;;17.40;13.73;;;24.70;99.90;;;;;;4993103;28;20043;-84
2022/08/16 08:32:27;;;;;;;18.63;13.32;;;25.00;99.90;;;;;;4983311;28;20406;-84
2022/08/16 08:34:57;;;;;;;18.50;13.25;;;24.70;99.90;;;;;;4983987;28;20034;-84
2022/08/16 08:37:24;;;;;;;18.90;14.05;;;24.80;99.90;;;;;;4983742;28;20045;-85
2022/08/16 08:39:50;;;;;;;19.65;14.45;;;24.90;99.90;;;;;;4966066;28;20058;-88
2022/08/16 08:42:16;;;;;;;18.67;14.52;;;24.90;99.90;;;;;;4984997;28;20042;-85
2022/08/16 08:44:41;;;;;;;21.25;15.75;;;25.00;99.90;;;;;;4984151;28;20541;-85
2022/08/16 08:47:07;;;;;;;21.63;16.33;;;24.90;99.90;;;;;;4979421;28;20118;-85
2022/08/16 08:49:36;;;;;;;20.23;15.02;;;24.90;99.90;;;;;;4974099;28;20487;-84
2022/08/16 08:52:04;;;;;;;20.73;15.45;;;25.00;99.90;;;;;;4958079;28;20047;-85
2022/08/16 08:54:31;;;;;;;19.15;14.80;;;25.10;99.90;;;;;;4957522;28;20143;-85
2022/08/16 08:56:57;;;;;;;20.88;14.45;;;25.20;99.90;;;;;;4956539;28;20465;-84
2022/08/16 08:59:23;;;;;;;18.77;14.25;;;25.60;99.90;;;;;;4957293;28;20137;-85
2022/08/16 09:01:50;;;;;;;20.05;15.18;;;25.40;99.90;;;;;;4957211;28;20086;-85
2022/08/16 09:04:18;;;;;;;21.25;15.13;;;25.40;99.90;;;;;;4956533;28;20047;-84
2022/08/16 09:06:44;;;;;;;17.98;14.10;;;25.50;99.90;;;;;;4957871;28;20483;-84
2022/08/16 09:09:10;;;;;;;19.25;13.65;;;25.40;99.90;;;;;;4974547;28;20050;-83
2022/08/16 09:11:43;;;;;;;19.95;13.88;;;25.40;99.90;;;;;;4973948;28;20554;-84
2022/08/16 09:14:09;;;;;;;18.88;13.55;;;25.60;99.90;;;;;;4975075;28;20049;-84
2022/08/16 09:16:34;;;;;;;17.00;13.45;;;25.70;99.90;;;;;;4974596;28;20047;-83
2022/08/16 09:19:00;;;;;;;16.77;12.30;;;25.80;99.90;;;;;;4956697;28;20042;-83
2022/08/16 09:21:26;;;;;;;22.65;14.48;;;26.00;99.90;;;;;;4957256;28;20117;-85
2022/08/16 09:23:53;;;;;;;20.88;14.77;;;26.20;99.90;;;;;;4962782;28;20082;-85
2022/08/16 09:26:23;;;;;;;19.50;13.73;;;26.10;99.90;;;;;;4972413;28;20039;-85
2022/08/16 09:28:50;;;;;;;17.40;12.50;;;26.20;99.90;;;;;;4956753;28;20080;-84
2022/08/16 09:31:16;;;;;;;20.80;12.77;;;26.30;99.90;;;;;;4974115;28;20113;-87
2022/08/16 09:33:47;;;;;;;19.92;13.85;;;26.40;99.90;;;;;;4999608;23;20065;-89
2022/08/16 09:36:13;;;;;;;19.95;12.85;;;26.50;99.90;;;;;;4999183;23;20105;-87
2022/08/16 09:38:39;;;;;;;17.98;11.70;;;26.70;99.90;;;;;;4975606;28;20070;-86
2022/08/16 09:41:07;;;;;;;16.23;12.10;;;26.80;99.90;;;;;;4977382;28;20038;-84
2022/08/16 09:43:34;;;;;;;17.10;12.20;;;27.00;99.90;;;;;;4974816;28;20035;-85
2022/08/16 09:46:01;;;;;;;16.27;11.43;;;26.90;99.90;;;;;;4969321;28;20136;-85
2022/08/16 09:48:27;;;;;;;14.73;10.07;;;26.80;99.90;;;;;;4971432;28;20101;-80
2022/08/16 09:50:53;;;;;;;16.23;11.15;;;26.90;99.90;;;;;;4963611;28;20035;-84
2022/08/16 09:53:22;;;;;;;17.83;12.52;;;27.20;99.90;;;;;;4956461;28;20086;-86
2022/08/16 09:55:51;;;;;;;14.82;10.27;;;27.20;99.90;;;;;;4974625;28;20039;-83
2022/08/16 09:58:23;;;;;;;14.07;9.05;;;27.20;99.90;;;;;;4956629;28;20049;-83
2022/08/16 10:00:49;;;;;;;16.00;8.30;;;27.20;99.90;;;;;;4973096;28;20052;-86
2022/08/16 10:03:19;;;;;;;13.32;9.40;;;27.20;99.90;;;;;;4967035;28;20039;-86
2022/08/16 10:05:45;;;;;;;13.48;7.68;;;27.40;99.90;;;;;;4955874;28;20057;-86
2022/08/16 10:08:20;;;;;;;14.45;8.57;;;27.70;99.90;;;;;;4973437;28;20034;-86
2022/08/16 10:13:46;;;;;;;14.63;8.95;;;27.90;99.30;;;;;;4965388;28;20054;-86
2022/08/16 10:16:12;;;;;;;14.07;9.73;;;27.90;99.60;;;;;;4981825;28;20434;-87
2022/08/16 10:18:40;;;;;;;13.40;8.80;;;27.80;99.80;;;;;;4967172;28;20039;-87
2022/08/16 10:21:05;;;;;;;11.43;7.55;;;27.90;99.60;;;;;;4983457;28;20149;-88
2022/08/16 10:23:40;;;;;;;13.18;6.70;;;28.00;99.70;;;;;;4964224;28;20209;-88
2022/08/16 10:26:06;;;;;;;10.68;6.53;;;28.20;97.90;;;;;;4963823;28;20058;-86
2022/08/16 10:28:38;;;;;;;10.82;6.07;;;28.30;98.70;;;;;;4954732;28;20047;-85
2022/08/16 10:31:16;;;;;;;13.30;6.93;;;28.40;96.50;;;;;;4955892;28;20558;-87
2022/08/16 10:33:52;;;;;;;12.35;7.38;;;28.70;96.60;;;;;;4956308;28;20098;-89
2022/08/16 10:36:21;;;;;;;14.00;7.90;;;28.60;97.20;;;;;;4960743;23;20057;-86
2022/08/16 10:38:46;;;;;;;12.27;7.22;;;28.50;97.50;;;;;;4955844;28;20451;-87
2022/08/16 10:41:12;;;;;;;13.30;6.80;;;28.60;97.50;;;;;;4973750;28;20051;-86
2022/08/16 10:43:40;;;;;;;10.52;6.35;;;28.70;96.90;;;;;;4972587;28;20037;-86
2022/08/16 10:46:12;;;;;;;10.93;6.60;;;29.10;96.80;;;;;;4973730;28;20102;-87
2022/08/16 10:48:40;;;;;;;12.45;7.18;;;29.10;95.70;;;;;;4973484;28;20046;-88
2022/08/16 10:51:06;;;;;;;10.18;5.85;;;29.10;96.40;;;;;;4973200;28;20126;-89
2022/08/16 10:53:32;;;;;;;10.10;5.80;;;29.20;96.10;;;;;;4956238;28;20038;-89
2022/08/16 10:55:58;;;;;;;11.68;6.22;;;29.40;95.50;;;;;;4972953;28;20100;-87
2022/08/16 10:58:25;;;;;;;10.30;6.20;;;29.30;95.20;;;;;;4971359;28;20078;-87
2022/08/16 11:00:50;;;;;;;12.13;6.35;;;29.30;95.20;;;;;;4949280;28;20043;-86
2022/08/16 11:03:16;;;;;;;10.25;6.00;;;29.20;94.60;;;;;;4972523;28;20057;-92
2022/08/16 11:05:45;;;;;;;11.50;6.03;;;29.30;94.80;;;;;;4951175;28;20559;-91
2022/08/16 11:08:16;;;;;;;9.38;5.75;;;29.50;94.80;;;;;;4959694;28;20403;-92
2022/08/16 11:10:46;;;;;;;9.20;4.82;;;29.90;94.10;;;;;;4963140;28;20097;-92
2022/08/16 11:13:27;;;;;;;9.57;5.30;;;29.70;93.70;;;;;;4947287;28;20031;-90
2022/08/16 11:16:03;;;;;;;12.23;5.93;;;29.80;93.30;;;;;;4945171;28;20043;-91
2022/08/16 11:18:32;;;;;;;9.50;5.10;;;29.90;92.70;;;;;;4944023;28;20447;-91
2022/08/16 11:21:09;;;;;;;8.65;5.10;;;29.90;93.10;;;;;;4943033;28;20055;-91
2022/08/16 11:23:44;;;;;;;12.52;5.20;;;29.90;92.00;;;;;;4962405;28;20098;-90
2022/08/16 11:26:10;;;;;;;12.20;5.55;;;30.10;91.90;;;;;;4978873;28;20079;-90
2022/08/16 11:28:42;;;;;;;10.38;5.70;;;30.20;92.60;;;;;;4949560;28;20414;-90
2022/08/16 11:31:14;;;;;;;9.05;5.13;;;30.40;91.10;;;;;;4946171;28;20050;-89
2022/08/16 11:33:42;;;;;;;9.65;5.40;;;30.20;91.30;;;;;;4960689;28;20035;-90
2022/08/16 11:36:08;;;;;;;12.27;5.20;;;30.20;91.40;;;;;;4938577;29;20496;-93
2022/08/16 11:38:38;;;;;;;9.65;5.25;;;30.20;91.30;;;;;;4957051;28;20055;-91
2022/08/16 11:41:03;;;;;;;11.63;6.43;;;30.40;90.30;;;;;;4959645;29;20158;-93
2022/08/16 11:43:40;;;;;;;11.85;6.13;;;30.50;91.30;;;;;;4942298;29;20047;-93
2022/08/16 11:46:26;;;;;;;12.68;6.20;;;30.50;91.30;;;;;;4940381;29;20094;-93
2022/08/16 11:49:10;;;;;;;9.30;5.53;;;30.50;91.30;;;;;;4941103;29;20483;-94
2022/08/16 11:51:43;;;;;;;10.73;5.85;;;30.50;91.50;;;;;;4954723;28;20486;-92
2022/08/16 11:54:26;;;;;;;12.60;6.10;;;30.20;90.90;;;;;;4957663;28;20046;-94
2022/08/16 11:56:58;;;;;;;10.77;5.85;;;29.90;90.10;;;;;;4954799;28;20042;-89
2022/08/16 11:59:26;;;;;;;10.52;5.55;;;29.80;90.40;;;;;;4942757;28;20046;-90
2022/08/16 12:02:01;;;;;;;11.13;5.78;;;30.10;91.00;;;;;;4959272;28;20372;-91
2022/08/16 12:04:27;;;;;;;10.00;5.50;;;30.20;90.40;;;;;;4981840;28;20046;-90
2022/08/16 12:07:03;;;;;;;10.95;5.47;;;30.70;91.00;;;;;;4982960;28;20043;-91
2022/08/16 12:09:44;;;;;;;9.93;5.55;;;30.60;88.00;;;;;;4970943;28;20042;-91
2022/08/16 12:12:10;;;;;;;10.38;4.82;;;31.20;88.10;;;;;;4971565;28;20047;-89
2022/08/16 12:15:14;;;;;;;9.30;4.63;;;31.10;89.40;;;;;;4979842;28;20039;-91
2022/08/16 12:17:41;;;;;;;9.82;4.85;;;31.20;87.70;;;;;;4977040;28;20117;-91
2022/08/16 12:20:29;;;;;;;9.20;4.53;;;31.60;88.10;;;;;;4963038;28;20070;-91
2022/08/16 12:22:55;;;;;;;10.13;4.90;;;31.70;85.00;;;;;;4957021;28;20483;-91
2022/08/16 12:25:31;;;;;;;9.25;4.70;;;31.70;85.50;;;;;;4939486;29;20079;-92
2022/08/16 12:27:59;;;;;;;10.00;4.78;;;31.70;84.70;;;;;;4957400;28;20082;-93
2022/08/16 12:30:46;;;;;;;8.00;3.83;;;31.50;82.70;;;;;;4940361;29;20079;-93
2022/08/16 12:33:32;;;;;;;9.68;4.60;;;31.60;84.00;;;;;;4964440;29;20047;-91
2022/08/16 12:36:00;;;;;;;9.40;4.18;;;31.70;83.90;;;;;;4942010;29;20495;-90
2022/08/16 12:38:26;;;;;;;8.85;4.10;;;31.80;80.60;;;;;;4944400;29;20058;-91
2022/08/16 12:40:53;;;;;;;10.00;4.18;;;31.90;81.70;;;;;;4940756;29;20130;-92
2022/08/16 12:43:21;;;;;;;8.30;4.40;;;31.90;82.10;;;;;;4955542;28;20435;-91
2022/08/16 12:45:59;;;;;;;9.38;4.30;;;32.00;81.70;;;;;;4945887;29;20058;-89
2022/08/16 12:51:20;;;;;;;8.70;4.20;;;32.10;78.90;;;;;;4960073;29;20130;-91
2022/08/16 12:54:00;;;;;;;10.07;4.47;;;32.10;81.40;;;;;;4940180;29;20106;-91
2022/08/16 12:56:37;;;;;;;8.70;4.10;;;31.80;79.50;;;;;;4939368;29;20059;-92
2022/08/16 12:59:19;;;;;;;9.75;4.10;;;31.30;78.90;;;;;;4940130;29;20102;-92